Time;durP1;ratioP1;P1;durP2;ratioP2;P2;SDS_P1;SDS_P2;PMS_P1;PMS_P2;Temp;Humidity;BMP_temperature;BMP_pressure;BME280_temperature;BME280_humidity;BME280_pressure;Samples;Min_cycle;Max_cycle;Signal;HPM_P1;HPM_P2
2024/01/19 00:00:08;;;;;;;36.33;21.50;;;;;;;6.87;100.00;98553.97;5134428;27;20061;-45
2024/01/19 00:02:37;;;;;;;38.72;21.73;;;;;;;6.89;100.00;98554.69;5134546;27;20131;-44
2024/01/19 00:05:06;;;;;;;39.75;22.45;;;;;;;6.86;100.00;98569.03;5134982;27;20051;-45
2024/01/19 00:07:35;;;;;;;39.15;21.98;;;;;;;6.68;100.00;98578.28;5134311;27;20050;-44
2024/01/19 00:10:03;;;;;;;43.45;22.45;;;;;;;6.65;100.00;98570.53;5134312;27;20043;-44
2024/01/19 00:12:36;;;;;;;41.33;22.38;;;;;;;6.59;100.00;98573.63;5134092;27;20051;-44
2024/01/19 00:15:09;;;;;;;40.58;22.60;;;;;;;6.43;100.00;98575.66;5134388;27;20067;-45
2024/01/19 00:17:37;;;;;;;42.13;23.17;;;;;;;6.35;100.00;98583.28;5133851;27;20043;-44
2024/01/19 00:20:13;;;;;;;42.38;23.65;;;;;;;6.32;100.00;98590.50;5134584;27;20380;-43
2024/01/19 00:22:42;;;;;;;38.13;21.90;;;;;;;6.29;100.00;98596.00;5134374;27;20452;-45
2024/01/19 00:25:10;;;;;;;43.15;22.80;;;;;;;6.25;100.00;98612.19;5134388;27;20756;-44
2024/01/19 00:27:38;;;;;;;43.28;23.42;;;;;;;6.25;100.00;98613.03;5134012;27;20138;-45
2024/01/19 00:30:09;;;;;;;46.72;24.02;;;;;;;6.18;100.00;98611.78;5133642;27;20126;-46
2024/01/19 00:32:40;;;;;;;42.97;23.05;;;;;;;6.15;100.00;98617.25;5133961;27;20079;-44
2024/01/19 00:35:09;;;;;;;44.42;24.50;;;;;;;6.07;100.00;98630.16;5133829;27;20051;-45
2024/01/19 00:37:41;;;;;;;42.42;21.85;;;;;;;6.02;100.00;98645.53;5134643;27;20059;-44
2024/01/19 00:40:12;;;;;;;39.97;21.98;;;;;;;5.95;100.00;98641.59;5133999;27;20053;-44
2024/01/19 00:42:40;;;;;;;40.15;21.33;;;;;;;5.87;100.00;98667.66;5133746;27;20050;-46
2024/01/19 00:45:11;;;;;;;37.80;19.83;;;;;;;5.69;100.00;98667.97;5133387;27;20039;-45
2024/01/19 00:47:39;;;;;;;36.72;20.23;;;;;;;5.67;100.00;98695.44;5133599;27;20435;-46
2024/01/19 00:50:09;;;;;;;38.50;19.85;;;;;;;5.62;100.00;98710.78;5133884;27;20047;-47
2024/01/19 00:52:37;;;;;;;36.33;19.88;;;;;;;5.49;100.00;98729.19;5134374;27;20388;-45
2024/01/19 00:55:07;;;;;;;37.85;20.40;;;;;;;5.60;100.00;98742.63;5134343;27;20051;-47
2024/01/19 00:57:35;;;;;;;39.45;19.98;;;;;;;5.52;100.00;98728.19;5134032;27;20482;-45
2024/01/19 01:00:05;;;;;;;39.92;19.17;;;;;;;5.47;100.00;98731.94;5133676;27;20046;-45
2024/01/19 01:02:41;;;;;;;38.55;19.23;;;;;;;5.49;100.00;98729.19;5132869;27;20085;-45
2024/01/19 01:05:12;;;;;;;35.35;19.10;;;;;;;5.09;100.00;98736.13;5133280;27;20039;-46
2024/01/19 01:07:41;;;;;;;32.10;18.10;;;;;;;4.82;100.00;98733.38;5133668;27;20053;-45
2024/01/19 01:10:10;;;;;;;33.42;17.33;;;;;;;4.76;100.00;98755.75;5134347;27;20052;-46
2024/01/19 01:12:39;;;;;;;34.08;18.17;;;;;;;4.90;100.00;98752.28;5133455;27;20054;-48
2024/01/19 01:15:08;;;;;;;35.30;18.63;;;;;;;4.94;100.00;98768.81;5133155;27;20051;-46
2024/01/19 01:17:38;;;;;;;30.65;16.80;;;;;;;4.54;100.00;98760.63;5133222;27;20179;-46
2024/01/19 01:20:10;;;;;;;29.85;17.13;;;;;;;4.58;100.00;98756.84;5133460;27;20508;-44
2024/01/19 01:22:39;;;;;;;28.60;16.93;;;;;;;4.56;100.00;98759.59;5133333;27;20051;-45
2024/01/19 01:25:10;;;;;;;24.85;15.73;;;;;;;4.36;100.00;98757.28;5133398;27;20051;-46
2024/01/19 01:27:38;;;;;;;26.20;15.75;;;;;;;4.16;100.00;98776.06;5132700;27;20516;-44
2024/01/19 01:30:09;;;;;;;26.70;15.25;;;;;;;3.87;100.00;98794.41;5133473;27;20134;-47
2024/01/19 01:32:39;;;;;;;27.60;15.88;;;;;;;3.72;100.00;98805.78;5133531;27;20071;-45
2024/01/19 01:35:09;;;;;;;28.77;16.23;;;;;;;3.55;100.00;98817.25;5133720;27;20043;-46
2024/01/19 01:37:37;;;;;;;27.45;15.82;;;;;;;3.57;100.00;98814.53;5133382;28;20174;-46
2024/01/19 01:40:07;;;;;;;27.23;15.77;;;;;;;3.53;100.00;98820.91;5133072;27;20055;-47
2024/01/19 01:42:36;;;;;;;28.83;15.75;;;;;;;3.52;100.00;98808.66;5133141;28;20046;-46
2024/01/19 01:45:05;;;;;;;29.55;17.08;;;;;;;3.32;100.00;98807.09;5133369;28;20051;-45
2024/01/19 01:47:38;;;;;;;25.90;15.43;;;;;;;3.40;100.00;98789.09;5133570;27;20469;-47
2024/01/19 01:50:09;;;;;;;29.42;16.23;;;;;;;3.44;100.00;98809.91;5133801;28;20043;-47
2024/01/19 01:52:38;;;;;;;28.27;15.82;;;;;;;3.35;100.00;98802.50;5133098;28;20100;-46
2024/01/19 01:55:08;;;;;;;28.92;15.82;;;;;;;3.23;100.00;98815.50;5132561;27;20054;-46
2024/01/19 01:57:38;;;;;;;31.40;17.83;;;;;;;3.26;100.00;98829.34;5132474;27;20096;-46
2024/01/19 02:00:09;;;;;;;30.25;16.50;;;;;;;3.02;100.00;98854.34;5132600;27;20104;-45
2024/01/19 02:02:38;;;;;;;31.63;16.75;;;;;;;3.09;100.00;98859.25;5132875;28;20058;-45
2024/01/19 02:05:11;;;;;;;29.90;16.23;;;;;;;3.17;100.00;98874.63;5133231;27;20051;-46
2024/01/19 02:07:46;;;;;;;30.70;17.25;;;;;;;3.11;100.00;98862.63;5137103;27;20480;-46
2024/01/19 02:10:15;;;;;;;28.23;16.63;;;;;;;3.07;100.00;98865.50;5136985;27;20039;-47
2024/01/19 02:12:44;;;;;;;28.77;16.13;;;;;;;2.84;100.00;98861.41;5136785;27;20049;-47
2024/01/19 02:15:19;;;;;;;30.13;16.25;;;;;;;2.91;100.00;98873.34;5137152;27;20487;-47
2024/01/19 02:17:49;;;;;;;31.15;17.63;;;;;;;2.94;100.00;98867.06;5136713;27;20454;-47
2024/01/19 02:20:20;;;;;;;31.70;17.30;;;;;;;2.91;100.00;98875.13;5136835;27;20460;-46
2024/01/19 02:22:49;;;;;;;31.25;16.45;;;;;;;3.01;100.00;98877.22;5136225;27;20062;-46
2024/01/19 02:25:21;;;;;;;30.35;16.40;;;;;;;2.94;100.00;98891.63;5136307;27;20047;-45
2024/01/19 02:27:50;;;;;;;32.47;17.00;;;;;;;2.75;100.00;98885.56;5136355;27;20047;-46
2024/01/19 02:30:18;;;;;;;31.55;17.13;;;;;;;2.82;100.00;98895.72;5136325;27;20050;-47
2024/01/19 02:32:47;;;;;;;32.80;16.15;;;;;;;2.79;100.00;98906.41;5136256;27;20412;-45
2024/01/19 02:35:20;;;;;;;31.52;17.30;;;;;;;2.70;100.00;98914.78;5136195;27;20350;-46
2024/01/19 02:37:52;;;;;;;31.10;16.85;;;;;;;2.69;100.00;98909.56;5136133;27;20047;-45
2024/01/19 02:40:24;;;;;;;28.20;15.80;;;;;;;2.56;100.00;98915.44;5136140;27;20388;-45
2024/01/19 02:42:56;;;;;;;29.60;16.42;;;;;;;2.54;100.00;98917.31;5135131;27;20047;-46
2024/01/19 02:45:24;;;;;;;31.67;17.30;;;;;;;2.50;100.00;98914.88;5136138;27;20179;-46
2024/01/19 02:47:52;;;;;;;29.60;16.75;;;;;;;2.51;100.00;98912.19;5135765;27;20519;-46
2024/01/19 02:50:21;;;;;;;31.73;17.77;;;;;;;2.42;100.00;98927.59;5134614;27;20103;-46
2024/01/19 02:52:49;;;;;;;31.83;16.88;;;;;;;2.47;100.00;98941.34;5135674;27;20146;-47
2024/01/19 02:55:18;;;;;;;29.27;15.57;;;;;;;2.45;100.00;98944.06;5135498;27;20050;-45
2024/01/19 02:57:53;;;;;;;29.90;16.75;;;;;;;2.45;100.00;98956.38;5135994;27;20051;-46
2024/01/19 03:00:21;;;;;;;29.17;16.63;;;;;;;2.47;100.00;98958.00;5136184;27;20043;-46
2024/01/19 03:02:50;;;;;;;30.17;16.17;;;;;;;2.38;100.00;98968.09;5136583;27;20047;-46
2024/01/19 03:05:19;;;;;;;28.95;15.70;;;;;;;2.42;100.00;98974.97;5135579;27;20455;-50
2024/01/19 03:07:47;;;;;;;31.55;16.73;;;;;;;2.35;100.00;98973.53;5135316;27;20059;-45
2024/01/19 03:10:16;;;;;;;32.80;17.00;;;;;;;2.37;100.00;98976.94;5135981;27;20047;-46
2024/01/19 03:12:45;;;;;;;32.60;16.20;;;;;;;2.38;100.00;98960.22;5135891;27;20058;-45
2024/01/19 03:15:15;;;;;;;32.13;17.58;;;;;;;2.34;100.00;98991.09;5135256;27;20043;-47
2024/01/19 03:17:44;;;;;;;30.15;16.48;;;;;;;2.32;100.00;98973.66;5133634;27;20043;-45
2024/01/19 03:20:13;;;;;;;28.88;15.38;;;;;;;2.30;100.00;98987.75;5134820;27;20051;-45
2024/01/19 03:22:41;;;;;;;27.65;15.90;;;;;;;2.36;100.00;98985.75;5135091;27;20050;-46
2024/01/19 03:25:10;;;;;;;29.40;15.43;;;;;;;2.37;100.00;98998.84;5135206;27;20062;-45
2024/01/19 03:27:38;;;;;;;29.48;15.73;;;;;;;2.34;100.00;98998.13;5135191;27;20590;-45
2024/01/19 03:30:08;;;;;;;29.40;15.15;;;;;;;2.23;100.00;98991.59;5135466;27;20047;-45
2024/01/19 03:32:38;;;;;;;30.25;16.45;;;;;;;2.32;100.00;98985.06;5135277;27;20065;-46
2024/01/19 03:35:07;;;;;;;30.67;16.05;;;;;;;2.30;100.00;99003.53;5135251;27;20568;-45
2024/01/19 03:37:36;;;;;;;28.00;15.02;;;;;;;2.14;100.00;99007.81;5135714;27;20039;-43
2024/01/19 03:40:09;;;;;;;29.10;15.75;;;;;;;2.15;100.00;99021.81;5135605;27;20039;-44
2024/01/19 03:42:38;;;;;;;31.15;17.02;;;;;;;2.17;100.00;99009.44;5135360;27;20039;-45
2024/01/19 03:45:08;;;;;;;26.83;15.00;;;;;;;2.32;100.00;99026.28;5134745;27;20051;-46
2024/01/19 03:47:38;;;;;;;25.05;14.45;;;;;;;2.12;100.00;99004.38;5135053;27;20127;-45
2024/01/19 03:50:08;;;;;;;24.15;14.63;;;;;;;2.14;100.00;99020.09;5134782;27;20472;-45
2024/01/19 03:52:37;;;;;;;27.30;14.90;;;;;;;2.24;100.00;99032.78;5135387;27;20086;-45
2024/01/19 03:55:06;;;;;;;24.17;13.18;;;;;;;2.04;100.00;99043.34;5134907;27;20050;-44
2024/01/19 03:57:34;;;;;;;27.35;13.68;;;;;;;2.19;100.00;99063.69;5132724;27;20043;-45
2024/01/19 04:00:05;;;;;;;25.50;13.00;;;;;;;2.17;100.00;99059.41;5134986;27;20043;-48
2024/01/19 04:02:33;;;;;;;25.90;13.90;;;;;;;2.26;100.00;99049.34;5135238;27;20091;-44
2024/01/19 04:05:04;;;;;;;26.02;14.50;;;;;;;2.23;100.00;99060.00;5134840;27;20065;-45
2024/01/19 04:07:32;;;;;;;29.00;13.63;;;;;;;2.33;100.00;99043.81;5135452;27;20039;-45
2024/01/19 04:10:01;;;;;;;23.50;13.23;;;;;;;2.26;100.00;99051.97;5135258;27;20049;-45
2024/01/19 04:12:29;;;;;;;24.23;13.73;;;;;;;2.22;100.00;99053.03;5134835;27;20138;-45
2024/01/19 04:14:57;;;;;;;26.02;13.45;;;;;;;2.12;100.00;99066.66;5134968;27;20119;-45
2024/01/19 04:17:26;;;;;;;24.70;13.70;;;;;;;2.12;100.00;99056.13;5134347;27;20040;-44
2024/01/19 04:19:56;;;;;;;24.20;13.05;;;;;;;2.16;100.00;99063.81;5133893;27;20078;-44
2024/01/19 04:22:28;;;;;;;23.90;13.45;;;;;;;2.18;100.00;99058.50;5134705;27;20058;-44
2024/01/19 04:24:56;;;;;;;23.48;13.48;;;;;;;2.17;100.00;99054.16;5134542;27;20039;-45
2024/01/19 04:27:25;;;;;;;23.23;13.05;;;;;;;2.23;100.00;99059.16;5134658;27;20054;-45
2024/01/19 04:29:54;;;;;;;25.67;13.20;;;;;;;2.20;100.00;99077.69;5134714;27;20047;-46
2024/01/19 04:32:23;;;;;;;25.25;12.57;;;;;;;2.25;100.00;99084.47;5135114;27;20047;-55
2024/01/19 04:34:51;;;;;;;25.45;13.77;;;;;;;2.25;100.00;99095.00;5134621;27;20415;-46
2024/01/19 04:37:20;;;;;;;23.17;12.82;;;;;;;2.13;100.00;99103.44;5134078;27;20049;-47
2024/01/19 04:39:50;;;;;;;21.00;12.07;;;;;;;1.94;100.00;99110.41;5134010;27;20058;-44
2024/01/19 04:42:18;;;;;;;24.70;13.30;;;;;;;1.99;100.00;99097.91;5134144;27;20053;-44
2024/01/19 04:44:46;;;;;;;26.88;14.18;;;;;;;1.79;100.00;99111.91;5134206;27;20127;-45
2024/01/19 04:47:14;;;;;;;25.55;13.52;;;;;;;1.84;100.00;99109.97;5134762;27;20134;-43
2024/01/19 04:49:43;;;;;;;23.73;12.93;;;;;;;1.90;100.00;99130.72;5135068;27;20047;-44
2024/01/19 04:52:11;;;;;;;24.40;11.80;;;;;;;1.92;100.00;99128.88;5134906;27;20043;-44
2024/01/19 04:54:43;;;;;;;23.60;12.68;;;;;;;1.98;100.00;99130.41;5134778;27;20085;-45
2024/01/19 04:57:12;;;;;;;24.38;12.75;;;;;;;1.95;100.00;99133.16;5134000;27;20082;-45
2024/01/19 04:59:45;;;;;;;22.65;11.93;;;;;;;1.90;100.00;99132.50;5133758;27;20407;-45
2024/01/19 05:02:14;;;;;;;24.10;12.07;;;;;;;1.93;100.00;99124.47;5132794;27;20054;-45
2024/01/19 05:04:47;;;;;;;25.40;13.73;;;;;;;2.00;100.00;99120.66;5134253;27;20043;-45
2024/01/19 05:07:15;;;;;;;25.95;13.13;;;;;;;1.91;100.00;99127.16;5134769;27;20408;-46
2024/01/19 05:09:45;;;;;;;23.77;12.98;;;;;;;1.88;100.00;99126.44;5133988;27;20041;-44
2024/01/19 05:12:14;;;;;;;24.02;12.25;;;;;;;2.04;100.00;99145.94;5134544;27;20443;-45
2024/01/19 05:14:43;;;;;;;26.00;12.70;;;;;;;1.91;100.00;99153.47;5134100;27;20450;-43
2024/01/19 05:17:14;;;;;;;22.23;12.35;;;;;;;2.08;100.00;99158.00;5133255;27;20078;-45
2024/01/19 05:19:42;;;;;;;26.35;13.35;;;;;;;1.94;100.00;99168.28;5132908;27;20073;-44
2024/01/19 05:22:10;;;;;;;20.05;10.13;;;;;;;1.81;100.00;99164.44;5132700;27;20043;-44
2024/01/19 05:24:41;;;;;;;22.23;11.82;;;;;;;1.98;100.00;99180.38;5133446;27;20111;-45
2024/01/19 05:27:10;;;;;;;21.75;11.25;;;;;;;1.98;100.00;99185.63;5132906;27;20139;-46
2024/01/19 05:29:40;;;;;;;23.27;12.45;;;;;;;1.94;100.00;99194.56;5133692;27;20532;-45
2024/01/19 05:32:10;;;;;;;23.60;12.60;;;;;;;1.83;100.00;99195.00;5132897;27;20082;-46
2024/01/19 05:34:38;;;;;;;22.02;12.00;;;;;;;1.75;100.00;99204.16;5132823;27;20074;-45
2024/01/19 05:37:07;;;;;;;22.55;11.60;;;;;;;1.80;100.00;99197.75;5133153;28;20066;-45
2024/01/19 05:39:35;;;;;;;24.23;12.32;;;;;;;1.89;100.00;99201.78;5133628;27;20412;-44
2024/01/19 05:42:04;;;;;;;21.75;11.55;;;;;;;1.94;100.00;99207.72;5132931;28;20051;-45
2024/01/19 05:44:37;;;;;;;22.67;12.30;;;;;;;2.07;100.00;99211.53;5133180;28;20043;-46
2024/01/19 05:47:06;;;;;;;21.50;11.98;;;;;;;2.04;100.00;99216.09;5132688;27;20127;-45
2024/01/19 05:49:38;;;;;;;22.63;11.45;;;;;;;2.01;100.00;99214.41;5132951;28;20139;-45
2024/01/19 05:52:06;;;;;;;20.63;10.55;;;;;;;2.20;100.00;99220.63;5133704;27;20395;-45
2024/01/19 05:54:35;;;;;;;20.48;10.82;;;;;;;2.14;100.00;99247.22;5133285;28;20082;-45
2024/01/19 05:57:08;;;;;;;21.15;11.30;;;;;;;2.07;100.00;99229.97;5132886;28;20051;-45
2024/01/19 05:59:38;;;;;;;;;;;;;;;2.15;100.00;99229.66;5133439;28;20381;-46
2024/01/19 06:02:08;;;;;;;23.58;11.02;;;;;;;2.03;100.00;99236.28;5133112;28;20353;-44
2024/01/19 06:04:38;;;;;;;21.40;11.15;;;;;;;2.10;100.00;99242.13;5132927;28;20071;-48
2024/01/19 06:07:07;;;;;;;20.48;10.57;;;;;;;2.16;100.00;99247.13;5133043;27;20047;-45
2024/01/19 06:09:35;;;;;;;25.08;11.73;;;;;;;2.32;100.00;99252.59;5133215;27;20075;-44
2024/01/19 06:12:06;;;;;;;20.80;11.07;;;;;;;2.27;100.00;99252.78;5132859;28;20516;-44
2024/01/19 06:14:34;;;;;;;22.05;11.38;;;;;;;2.34;100.00;99246.38;5132932;28;20051;-45
2024/01/19 06:17:03;;;;;;;18.58;10.90;;;;;;;2.36;100.00;99256.81;5132222;28;20043;-45
2024/01/19 06:19:32;;;;;;;20.55;10.90;;;;;;;2.38;100.00;99263.72;5132493;27;20089;-45
2024/01/19 06:22:01;;;;;;;20.65;10.43;;;;;;;2.36;100.00;99285.75;5132605;27;20050;-44
2024/01/19 06:24:34;;;;;;;21.02;10.80;;;;;;;2.48;100.00;99285.25;5132472;27;20061;-45
2024/01/19 06:27:02;;;;;;;22.23;11.35;;;;;;;2.45;100.00;99295.91;5132345;27;20069;-44
2024/01/19 06:29:31;;;;;;;21.05;10.80;;;;;;;2.27;100.00;99303.66;5132355;27;20059;-45
2024/01/19 06:31:59;;;;;;;21.92;11.20;;;;;;;2.44;100.00;99302.94;5132026;27;20051;-45
2024/01/19 06:34:28;;;;;;;21.83;10.77;;;;;;;2.52;100.00;99318.44;5132281;27;20456;-45
2024/01/19 06:37:01;;;;;;;19.30;10.40;;;;;;;2.50;100.00;99329.00;5132615;27;20043;-48
2024/01/19 06:39:29;;;;;;;21.73;11.27;;;;;;;2.41;100.00;99326.75;5130515;27;20134;-44
2024/01/19 06:41:58;;;;;;;21.42;10.63;;;;;;;2.50;100.00;99336.03;5132217;27;20418;-44
2024/01/19 06:44:27;;;;;;;21.73;10.27;;;;;;;2.56;100.00;99339.28;5131777;27;20047;-45
2024/01/19 06:46:55;;;;;;;19.67;10.55;;;;;;;2.36;100.00;99341.03;5131912;27;20050;-44
2024/01/19 06:49:23;;;;;;;19.23;10.57;;;;;;;2.47;100.00;99346.72;5132047;27;20127;-45
2024/01/19 06:51:52;;;;;;;19.27;10.40;;;;;;;2.48;100.00;99344.00;5132157;27;20092;-45
2024/01/19 06:54:24;;;;;;;19.80;9.77;;;;;;;2.43;100.00;99356.53;5135611;27;20051;-48
2024/01/19 06:56:53;;;;;;;19.50;9.63;;;;;;;2.33;100.00;99343.81;5135621;27;20058;-45
2024/01/19 06:59:21;;;;;;;21.05;9.88;;;;;;;2.15;100.00;99356.78;5135425;27;20054;-44
2024/01/19 07:01:49;;;;;;;19.25;9.80;;;;;;;2.23;100.00;99357.34;5135403;27;20559;-49
2024/01/19 07:04:18;;;;;;;16.67;8.73;;;;;;;2.34;100.00;99372.69;5135164;27;20046;-45
2024/01/19 07:06:46;;;;;;;21.67;9.65;;;;;;;2.41;100.00;99374.13;5135500;27;20069;-44
2024/01/19 07:09:17;;;;;;;18.83;8.68;;;;;;;2.38;100.00;99389.19;5135799;27;20114;-45
2024/01/19 07:11:48;;;;;;;18.80;9.30;;;;;;;2.51;100.00;99379.88;5136412;27;20043;-46
2024/01/19 07:14:16;;;;;;;18.52;9.05;;;;;;;2.47;100.00;99386.19;5134751;27;20771;-45
2024/01/19 07:16:44;;;;;;;15.82;7.90;;;;;;;2.49;100.00;99397.50;5135213;27;20070;-45
2024/01/19 07:19:12;;;;;;;16.90;8.50;;;;;;;2.41;100.00;99400.44;5135146;27;20476;-47
2024/01/19 07:21:42;;;;;;;18.55;8.05;;;;;;;2.37;100.00;99425.19;5135493;27;20130;-45
2024/01/19 07:24:12;;;;;;;15.52;7.82;;;;;;;2.32;100.00;99413.13;5134829;27;20480;-47
2024/01/19 07:26:41;;;;;;;15.30;7.70;;;;;;;2.39;100.00;99406.69;5134477;27;20122;-45
2024/01/19 07:29:11;;;;;;;16.25;7.90;;;;;;;2.27;100.00;99416.81;5135553;27;20071;-49
2024/01/19 07:31:39;;;;;;;14.85;7.55;;;;;;;2.20;100.00;99422.34;5135735;27;20565;-45
2024/01/19 07:34:08;;;;;;;14.05;7.43;;;;;;;2.02;100.00;99423.94;5135170;27;20051;-44
2024/01/19 07:36:37;;;;;;;14.45;7.43;;;;;;;2.14;100.00;99423.47;5136512;27;20047;-44
2024/01/19 07:39:06;;;;;;;13.40;6.78;;;;;;;2.22;100.00;99421.41;5135542;27;20126;-47
2024/01/19 07:41:34;;;;;;;15.82;7.07;;;;;;;2.06;100.00;99412.38;5135358;27;20652;-45
2024/01/19 07:44:02;;;;;;;14.18;7.05;;;;;;;2.01;100.00;99430.09;5135486;27;20073;-46
2024/01/19 07:46:32;;;;;;;14.50;7.45;;;;;;;2.00;100.00;99420.50;5135536;27;20423;-47
2024/01/19 07:49:00;;;;;;;12.48;6.47;;;;;;;2.00;100.00;99428.41;5135488;27;20039;-47
2024/01/19 07:51:28;;;;;;;17.40;6.85;;;;;;;1.90;100.00;99445.44;5135664;27;20411;-45
2024/01/19 07:54:00;;;;;;;12.82;7.20;;;;;;;1.96;100.00;99450.47;5134522;27;20441;-47
2024/01/19 07:56:28;;;;;;;16.02;7.07;;;;;;;1.87;100.00;99459.56;5135124;27;20506;-48
2024/01/19 07:58:57;;;;;;;15.05;7.70;;;;;;;1.76;100.00;99458.25;5134878;27;20108;-44
2024/01/19 08:01:25;;;;;;;15.95;7.43;;;;;;;1.81;100.00;99461.56;5134882;27;20062;-46
2024/01/19 08:03:54;;;;;;;18.02;7.72;;;;;;;1.63;100.00;99457.84;5134210;27;20045;-46
2024/01/19 08:06:23;;;;;;;14.90;6.72;;;;;;;1.65;100.00;99461.28;5134012;27;20138;-46
2024/01/19 08:08:52;;;;;;;14.77;7.03;;;;;;;1.67;100.00;99464.72;5133741;27;20047;-45
2024/01/19 08:11:21;;;;;;;14.80;7.57;;;;;;;1.67;100.00;99468.19;5131003;27;20059;-46
2024/01/19 08:13:49;;;;;;;15.18;6.72;;;;;;;1.69;100.00;99463.72;5133618;27;20189;-45
2024/01/19 08:16:17;;;;;;;13.95;6.88;;;;;;;1.65;100.00;99463.91;5133878;27;20043;-45
2024/01/19 08:18:46;;;;;;;13.07;7.30;;;;;;;1.67;100.00;99460.31;5133921;27;20050;-44
2024/01/19 08:21:16;;;;;;;15.80;6.95;;;;;;;1.59;100.00;99445.72;5133592;27;20051;-45
2024/01/19 08:23:45;;;;;;;14.25;6.75;;;;;;;1.39;100.00;99451.69;5134018;27;20059;-45
2024/01/19 08:26:13;;;;;;;15.07;7.40;;;;;;;1.49;100.00;99452.22;5132149;27;20047;-44
2024/01/19 08:28:45;;;;;;;13.10;6.57;;;;;;;1.60;100.00;99452.69;5133383;27;20116;-45
2024/01/19 08:31:14;;;;;;;14.40;7.07;;;;;;;1.51;100.00;99459.13;5133289;27;20047;-45
2024/01/19 08:33:42;;;;;;;13.48;6.55;;;;;;;1.45;100.00;99464.63;5133588;27;20046;-45
2024/01/19 08:36:11;;;;;;;19.50;7.97;;;;;;;1.50;100.00;99481.09;5133491;27;20039;-45
2024/01/19 08:38:44;;;;;;;16.25;6.88;;;;;;;1.60;100.00;99500.88;5133395;27;20043;-45
2024/01/19 08:41:12;;;;;;;15.40;7.15;;;;;;;1.80;100.00;99507.19;5132276;27;20047;-45
2024/01/19 08:43:42;;;;;;;13.27;6.72;;;;;;;1.85;100.00;99521.03;5133321;27;20182;-45
2024/01/19 08:46:10;;;;;;;12.35;6.40;;;;;;;1.71;100.00;99525.00;5132999;27;20046;-45
2024/01/19 08:48:39;;;;;;;17.85;7.47;;;;;;;1.78;100.00;99530.91;5132686;27;20062;-45
2024/01/19 08:51:07;;;;;;;15.93;8.50;;;;;;;1.95;100.00;99525.03;5132937;27;20471;-45
2024/01/19 08:53:36;;;;;;;14.35;6.88;;;;;;;2.02;100.00;99537.03;5132957;27;20047;-47
2024/01/19 08:56:06;;;;;;;13.65;7.43;;;;;;;2.05;100.00;99536.94;5133141;27;20127;-46
2024/01/19 08:58:38;;;;;;;11.15;6.68;;;;;;;2.01;100.00;99548.47;5133172;27;20083;-46
2024/01/19 09:01:07;;;;;;;13.05;6.30;;;;;;;1.96;100.00;99556.53;5132738;27;20053;-44
2024/01/19 09:03:35;;;;;;;13.10;6.75;;;;;;;1.86;100.00;99567.47;5132630;27;20055;-47
2024/01/19 09:06:04;;;;;;;15.25;7.57;;;;;;;1.82;100.00;99568.47;5132425;27;20144;-43
2024/01/19 09:08:33;;;;;;;15.75;7.45;;;;;;;1.79;100.00;99568.56;5132409;27;20166;-48
2024/01/19 09:11:01;;;;;;;15.57;7.68;;;;;;;1.57;100.00;99561.44;5133092;27;20043;-46
2024/01/19 09:13:30;;;;;;;15.05;8.15;;;;;;;1.36;100.00;99564.81;5165564;27;20047;-46
2024/01/19 09:15:59;;;;;;;14.25;8.10;;;;;;;1.44;100.00;99578.53;5132081;27;20118;-45
2024/01/19 09:18:27;;;;;;;18.52;8.65;;;;;;;1.38;100.00;99594.50;5132749;27;20039;-44
2024/01/19 09:20:55;;;;;;;15.85;8.70;;;;;;;1.23;100.00;99584.50;5132700;27;20128;-45
2024/01/19 09:23:24;;;;;;;16.88;8.20;;;;;;;1.17;100.00;99587.34;5132707;27;20043;-49
2024/01/19 09:25:53;;;;;;;16.65;9.05;;;;;;;1.04;100.00;99587.72;5131218;27;20096;-46
2024/01/19 09:28:24;;;;;;;16.60;8.88;;;;;;;0.99;100.00;99587.03;5132332;27;20414;-46
2024/01/19 09:30:54;;;;;;;16.20;8.10;;;;;;;1.23;100.00;99600.25;5132884;27;20066;-45
2024/01/19 09:33:22;;;;;;;20.38;8.50;;;;;;;1.21;100.00;99609.97;5132490;27;20043;-44
2024/01/19 09:35:51;;;;;;;19.70;9.23;;;;;;;1.32;100.00;99610.47;5132765;27;20043;-46
2024/01/19 09:38:22;;;;;;;17.92;8.43;;;;;;;1.26;100.00;99610.69;5132718;28;20043;-45
2024/01/19 09:41:03;;;;;;;13.13;7.45;;;;;;;1.23;100.00;99611.63;5132396;27;20373;-45
2024/01/19 09:43:34;;;;;;;16.05;8.52;;;;;;;1.29;100.00;99628.97;5132828;27;20084;-46
2024/01/19 09:46:06;;;;;;;17.38;8.45;;;;;;;1.34;100.00;99621.78;5131466;28;20535;-46
2024/01/19 09:48:45;;;;;;;21.45;9.55;;;;;;;1.34;100.00;99629.66;5132068;28;20063;-46
2024/01/19 09:51:14;;;;;;;19.30;9.35;;;;;;;1.27;100.00;99622.91;5131766;27;20082;-48
2024/01/19 09:53:48;;;;;;;16.50;9.05;;;;;;;1.04;100.00;99632.38;5132274;27;20066;-44
2024/01/19 09:56:23;;;;;;;17.05;9.02;;;;;;;1.14;100.00;99644.31;5132125;28;20097;-45
2024/01/19 09:58:55;;;;;;;20.60;10.55;;;;;;;1.00;100.00;99649.13;5132310;27;20101;-46
2024/01/19 10:01:26;;;;;;;22.58;10.10;;;;;;;0.86;100.00;99646.06;5132464;28;20050;-45
2024/01/19 10:03:59;;;;;;;19.83;10.68;;;;;;;0.77;100.00;99649.84;5131756;27;20043;-47
2024/01/19 10:06:28;;;;;;;21.85;10.90;;;;;;;0.80;100.00;99649.75;5132191;28;20463;-45
2024/01/19 10:08:57;;;;;;;25.63;11.80;;;;;;;0.97;100.00;99651.00;5132056;27;20089;-45
2024/01/19 10:11:30;;;;;;;23.73;11.65;;;;;;;1.02;100.00;99655.19;5131860;27;20049;-46
2024/01/19 10:13:59;;;;;;;23.83;11.38;;;;;;;0.99;100.00;99655.31;5132438;27;20093;-46
2024/01/19 10:16:28;;;;;;;27.60;12.10;;;;;;;1.02;100.00;99670.97;5131670;27;20469;-45
2024/01/19 10:18:58;;;;;;;22.83;12.05;;;;;;;1.07;100.00;99653.31;5132102;28;20185;-49
2024/01/19 10:21:29;;;;;;;21.60;11.27;;;;;;;0.97;100.00;99654.50;5132276;27;20047;-46
2024/01/19 10:24:14;;;;;;;21.90;11.43;;;;;;;0.90;100.00;99654.72;5133327;27;20047;-48
2024/01/19 10:26:43;;;;;;;22.52;11.90;;;;;;;0.68;100.00;99676.38;5133780;27;20047;-48
2024/01/19 10:29:13;;;;;;;25.50;12.25;;;;;;;0.65;100.00;99665.94;5138153;27;20051;-46
2024/01/19 10:31:47;;;;;;;23.00;12.07;;;;;;;0.76;100.00;99666.47;5138857;27;20129;-46
2024/01/19 10:34:19;;;;;;;24.15;12.27;;;;;;;0.65;100.00;99675.56;5136994;27;20061;-45
2024/01/19 10:36:49;;;;;;;27.35;11.90;;;;;;;0.53;100.00;99682.91;5134754;27;20073;-45
2024/01/19 10:39:20;;;;;;;26.63;13.18;;;;;;;0.69;100.00;99706.97;5135766;27;20051;-46
2024/01/19 10:41:52;;;;;;;26.38;12.98;;;;;;;0.79;100.00;99712.81;5136100;27;20104;-46
2024/01/19 10:44:22;;;;;;;25.27;13.48;;;;;;;0.66;100.00;99711.41;5135798;27;20091;-45
2024/01/19 10:46:52;;;;;;;27.73;13.70;;;;;;;0.72;100.00;99713.88;5136433;27;20065;-45
2024/01/19 10:49:21;;;;;;;23.50;11.20;;;;;;;0.79;100.00;99720.69;5135852;27;20078;-46
2024/01/19 10:51:54;;;;;;;30.67;13.88;;;;;;;0.81;100.00;99734.63;5136094;27;20481;-44
2024/01/19 10:54:25;;;;;;;25.23;13.40;;;;;;;0.71;100.00;99744.53;5135777;27;20043;-46
2024/01/19 10:57:03;;;;;;;26.55;13.18;;;;;;;0.78;100.00;99759.22;5135766;27;20178;-47
2024/01/19 10:59:32;;;;;;;25.98;12.77;;;;;;;0.80;100.00;99765.25;5135717;27;20074;-46
2024/01/19 11:02:03;;;;;;;26.08;12.73;;;;;;;0.86;100.00;99778.19;5135927;27;20047;-46
2024/01/19 11:04:33;;;;;;;26.33;14.13;;;;;;;0.73;100.00;99786.47;5135539;27;20039;-47
2024/01/19 11:07:03;;;;;;;24.58;12.95;;;;;;;0.84;100.00;99798.41;5135884;27;20054;-47
2024/01/19 11:09:32;;;;;;;26.77;13.13;;;;;;;0.85;100.00;99800.13;5135304;27;20062;-47
2024/01/19 11:12:03;;;;;;;26.13;13.35;;;;;;;0.92;100.00;99803.44;5132593;27;20100;-45
2024/01/19 11:14:39;;;;;;;24.67;13.07;;;;;;;0.91;100.00;99814.84;5129055;27;20445;-45
2024/01/19 11:17:09;;;;;;;32.53;14.50;;;;;;;0.91;100.00;99822.72;5114631;28;20377;-47
2024/01/19 11:19:37;;;;;;;26.65;13.10;;;;;;;0.72;100.00;99830.25;5114391;28;20046;-48
2024/01/19 11:22:09;;;;;;;23.05;12.98;;;;;;;0.74;100.00;99843.31;5114745;28;20069;-47
2024/01/19 11:24:45;;;;;;;25.38;12.40;;;;;;;0.79;100.00;99834.44;5115364;27;20409;-46
2024/01/19 11:27:22;;;;;;;29.13;13.65;;;;;;;0.80;100.00;99845.81;5114574;28;20048;-46
2024/01/19 11:29:58;;;;;;;29.85;13.93;;;;;;;0.77;100.00;99852.00;5114495;28;20130;-45